createdAt,value
2022-11-21T00:03:26.884Z,77.00
2022-11-21T00:08:27.648Z,68.65
2022-11-21T00:13:29.762Z,75.05
2022-11-21T00:18:30.560Z,72.40
2022-11-21T00:23:31.491Z,66.05
2022-11-21T00:28:33.709Z,69.10
2022-11-21T00:33:36.022Z,70.68
2022-11-21T00:38:37.260Z,78.32
2022-11-21T00:43:39.422Z,67.28
2022-11-21T00:48:40.252Z,74.40
2022-11-21T00:53:41.148Z,63.80
2022-11-21T00:58:43.260Z,66.72
2022-11-21T01:03:46.163Z,69.25
2022-11-21T01:08:47.003Z,71.15
2022-11-21T01:13:50.374Z,74.88
2022-11-21T01:18:51.732Z,64.90
2022-11-21T01:23:53.036Z,68.32
2022-11-21T01:28:55.488Z,63.47
2022-11-21T01:33:58.824Z,64.43
2022-11-21T01:39:01.634Z,60.20
2022-11-21T01:44:05.482Z,63.60
2022-11-21T01:49:09.249Z,63.08
2022-11-21T01:54:14.767Z,62.10
2022-11-21T01:59:22.677Z,64.03
2022-11-21T02:04:29.494Z,50.83
2022-11-21T02:09:32.772Z,62.33
2022-11-21T02:14:36.234Z,61.60
2022-11-21T02:19:44.811Z,55.92
2022-11-21T02:24:50.411Z,57.40
2022-11-21T02:29:52.555Z,56.53
2022-11-21T02:34:53.325Z,52.03
2022-11-21T02:39:54.841Z,51.03
2022-11-21T02:45:01.671Z,61.38
2022-11-21T02:50:11.436Z,57.13
2022-11-21T02:55:13.547Z,45.80
2022-11-21T03:00:17.005Z,53.25
2022-11-21T03:05:19.930Z,58.30
2022-11-21T03:10:21.028Z,50.35
2022-11-21T03:15:23.163Z,53.17
2022-11-21T03:20:24.088Z,41.03
2022-11-21T03:25:25.164Z,49.15
2022-11-21T03:30:27.738Z,45.80
2022-11-21T03:35:28.518Z,48.83
2022-11-21T03:40:29.319Z,41.03
2022-11-21T03:45:31.402Z,40.92
2022-11-21T03:50:32.476Z,37.97
2022-11-21T03:55:33.286Z,41.72
2022-11-21T04:00:35.408Z,35.47
2022-11-21T04:05:36.163Z,31.35
2022-11-21T04:10:37.027Z,35.80
2022-11-21T04:15:39.284Z,37.35
2022-11-21T04:20:41.073Z,34.78
2022-11-21T04:25:42.142Z,32.78
2022-11-21T04:30:44.388Z,27.55
2022-11-21T04:35:46.365Z,31.75
2022-11-21T04:40:47.163Z,32.45
2022-11-21T04:45:49.402Z,27.98
2022-11-21T04:50:50.197Z,26.98
2022-11-21T04:55:50.954Z,27.02
2022-11-21T05:00:53.125Z,22.10
2022-11-21T05:05:55.005Z,29.33
2022-11-21T05:11:18.692Z,30.25
2022-11-21T05:16:20.917Z,31.75
2022-11-21T05:21:21.673Z,26.33
2022-11-21T05:26:22.493Z,31.70
2022-11-21T05:31:24.598Z,27.98
2022-11-21T05:36:25.389Z,29.95
2022-11-21T05:41:26.178Z,28.23
2022-11-21T05:46:28.533Z,28.33
2022-11-21T05:51:29.312Z,30.08
2022-11-21T05:56:30.246Z,35.38
2022-11-21T06:01:50.014Z,35.30
2022-11-21T06:06:50.767Z,33.08
2022-11-21T06:11:51.592Z,34.70
2022-11-21T06:16:53.714Z,30.40
2022-11-21T06:21:54.506Z,35.13
2022-11-21T06:26:55.286Z,36.67
2022-11-21T06:31:57.549Z,35.90
2022-11-21T06:36:58.326Z,41.55
2022-11-21T06:41:59.063Z,34.97
2022-11-21T06:47:01.176Z,34.38
2022-11-21T06:52:01.907Z,35.22
2022-11-21T06:57:02.635Z,33.42
2022-11-21T07:02:04.802Z,31.10
2022-11-21T07:07:05.568Z,29.05
2022-11-21T07:12:24.188Z,33.53
2022-11-21T07:17:26.359Z,33.47
2022-11-21T07:22:27.135Z,34.17
2022-11-21T07:27:28.041Z,34.22
2022-11-21T07:32:30.147Z,37.28
2022-11-21T07:37:31.096Z,34.95
2022-11-21T07:42:33.437Z,39.60
2022-11-21T07:47:35.628Z,36.28
2022-11-21T07:52:36.747Z,45.47
2022-11-21T07:57:37.484Z,38.53
2022-11-21T08:02:39.588Z,41.10
2022-11-21T08:07:40.385Z,44.70
2022-11-21T08:12:41.310Z,41.53
2022-11-21T08:17:45.135Z,41.17
2022-11-21T08:22:45.940Z,37.20
2022-11-21T08:27:46.751Z,36.30
2022-11-21T08:32:49.018Z,37.50
2022-11-21T08:37:49.808Z,37.95
2022-11-21T08:42:57.577Z,38.47
2022-11-21T08:47:59.852Z,39.70
2022-11-21T08:53:02.360Z,41.42
2022-11-21T08:58:03.193Z,49.03
2022-11-21T09:03:07.417Z,44.25
2022-11-21T09:08:08.184Z,42.10
2022-11-21T09:13:08.941Z,36.17
2022-11-21T09:18:12.278Z,39.55
2022-11-21T09:23:15.034Z,43.38
2022-11-21T09:28:16.457Z,43.72
2022-11-21T09:33:18.612Z,43.08
2022-11-21T09:38:23.778Z,44.45
2022-11-21T09:43:39.506Z,48.65
2022-11-21T09:48:49.903Z,51.53
2022-11-21T09:53:58.491Z,45.17
2022-11-21T09:59:13.241Z,49.97
2022-11-21T10:04:15.509Z,52.05
2022-11-21T10:09:24.681Z,55.40
2022-11-21T10:14:33.250Z,52.00
2022-11-21T10:19:59.709Z,54.78
2022-11-21T10:25:07.598Z,48.72
2022-11-21T10:30:16.336Z,53.72
2022-11-21T10:35:22.722Z,43.33
2022-11-21T10:40:37.082Z,43.33
2022-11-21T10:45:37.872Z,41.40
2022-11-21T10:50:54.727Z,42.13
2022-11-21T10:56:03.192Z,45.25
2022-11-21T11:01:04.390Z,38.67
2022-11-21T11:06:06.634Z,42.65
2022-11-21T11:11:09.173Z,47.97
2022-11-21T11:16:17.522Z,42.90
2022-11-21T11:21:21.946Z,39.75
2022-11-21T11:26:26.398Z,43.55
2022-11-21T11:31:27.201Z,43.72
2022-11-21T11:36:38.133Z,42.67
2022-11-21T11:42:16.989Z,41.50
2022-11-21T11:47:32.563Z,40.85
2022-11-21T11:52:40.649Z,45.03
2022-11-21T11:57:43.979Z,40.40
2022-11-21T12:02:53.121Z,38.67
2022-11-21T12:08:40.236Z,36.97
2022-11-21T12:13:29.860Z,37.58
2022-11-21T12:18:37.436Z,37.03
2022-11-21T12:23:47.252Z,30.30
2022-11-21T12:29:03.520Z,32.65
2022-11-21T12:34:14.658Z,36.00
2022-11-21T12:39:48.144Z,36.45
2022-11-21T12:45:03.870Z,36.75
2022-11-21T12:50:34.623Z,35.35
2022-11-21T12:55:40.279Z,40.05
2022-11-21T13:00:53.866Z,41.53
2022-11-21T13:05:58.265Z,37.92
2022-11-21T13:11:25.865Z,41.00
2022-11-21T13:16:37.700Z,37.38
2022-11-21T13:21:42.781Z,36.75
2022-11-21T13:26:54.996Z,41.38
2022-11-21T13:31:55.830Z,41.33
2022-11-21T13:36:56.941Z,39.05
2022-11-21T13:42:27.555Z,40.92
2022-11-21T13:48:02.126Z,38.95
2022-11-21T13:53:13.400Z,48.05
2022-11-21T13:58:40.142Z,45.08
2022-11-21T14:03:56.189Z,42.28
2022-11-21T14:09:20.949Z,41.03
2022-11-21T14:14:36.225Z,35.25
2022-11-21T14:19:37.414Z,40.58
2022-11-21T14:24:41.033Z,37.33
2022-11-21T14:29:43.278Z,43.83
2022-11-21T14:34:44.060Z,42.38
2022-11-21T14:39:49.006Z,45.80
2022-11-21T14:45:09.558Z,50.45
2022-11-21T14:50:24.189Z,52.95
2022-11-21T14:55:30.693Z,53.10
2022-11-21T15:06:05.120Z,58.47
2022-11-21T15:11:09.536Z,54.05
2022-11-21T15:16:12.238Z,51.53
2022-11-21T15:21:17.047Z,51.95
2022-11-21T15:26:33.328Z,52.30
2022-11-21T15:31:35.722Z,58.90
2022-11-21T15:36:36.560Z,55.58
2022-11-21T15:41:37.919Z,54.00
2022-11-21T15:46:42.611Z,49.42
2022-11-21T15:52:06.046Z,50.85
2022-11-21T15:57:06.855Z,55.83
2022-11-21T16:02:13.181Z,49.03
2022-11-21T16:07:14.076Z,55.35
2022-11-21T16:12:15.400Z,49.15
2022-11-21T16:17:17.760Z,52.35
2022-11-21T16:22:18.551Z,49.30
2022-11-21T16:27:19.687Z,46.47
2022-11-21T16:32:21.828Z,52.42
2022-11-21T16:37:22.693Z,55.83
2022-11-21T16:42:23.858Z,47.10
2022-11-21T16:47:26.053Z,55.72
2022-11-21T16:52:26.874Z,47.08
2022-11-21T16:57:27.666Z,51.05
2022-11-21T17:02:30.108Z,48.08
2022-11-21T17:07:32.062Z,44.45
2022-11-21T17:12:40.127Z,52.28
2022-11-21T17:17:43.578Z,44.22
2022-11-21T17:22:44.400Z,40.25
2022-11-21T17:27:45.224Z,42.03
2022-11-21T17:32:47.488Z,42.17
2022-11-21T17:37:48.284Z,37.40
2022-11-21T17:42:49.656Z,43.45
2022-11-21T17:47:51.936Z,41.58
2022-11-21T17:52:52.783Z,39.17
2022-11-21T17:57:53.786Z,40.30
2022-11-21T18:02:57.486Z,34.78
2022-11-21T18:07:58.701Z,32.40
2022-11-21T18:12:59.487Z,35.58
2022-11-21T18:18:01.644Z,33.05
2022-11-21T18:23:02.530Z,35.28
2022-11-21T18:28:03.334Z,32.03
2022-11-21T18:33:05.515Z,33.33
2022-11-21T18:38:06.306Z,32.65
2022-11-21T18:43:07.731Z,32.90
2022-11-21T18:48:09.893Z,34.25
2022-11-21T18:53:10.783Z,29.77
2022-11-21T18:58:11.584Z,31.05
2022-11-21T19:03:14.027Z,30.15
2022-11-21T19:08:14.850Z,33.10
2022-11-21T19:13:15.900Z,29.35
2022-11-21T19:18:18.088Z,28.52
2022-11-21T19:23:18.871Z,27.80
2022-11-21T19:28:19.639Z,27.15
2022-11-21T19:33:21.949Z,26.52
2022-11-21T19:38:22.873Z,28.67
2022-11-21T19:43:23.852Z,29.00
2022-11-21T19:48:26.047Z,31.13
2022-11-21T19:53:28.398Z,22.95
2022-11-21T19:58:29.363Z,32.90
2022-11-21T20:03:31.686Z,32.33
2022-11-21T20:08:32.533Z,30.25
2022-11-21T20:13:33.708Z,31.85
2022-11-21T20:18:36.099Z,35.20
2022-11-21T20:23:37.106Z,29.55
2022-11-21T20:28:38.314Z,34.70
2022-11-21T20:33:42.035Z,30.30
2022-11-21T20:38:43.275Z,28.38
2022-11-21T20:44:26.741Z,31.65
2022-11-21T20:49:07.294Z,31.83
2022-11-21T20:54:08.268Z,30.42
2022-11-21T20:59:09.205Z,28.73
2022-11-21T21:04:12.117Z,27.35
2022-11-21T21:09:12.922Z,28.38
2022-11-21T21:14:13.772Z,28.02
2022-11-21T21:19:16.411Z,23.50
2022-11-21T21:24:17.403Z,29.17
2022-11-21T21:29:21.088Z,31.08
2022-11-21T21:34:24.017Z,21.15
2022-11-21T21:39:27.205Z,25.13
2022-11-21T21:44:33.509Z,29.30
2022-11-21T21:49:36.142Z,30.88
2022-11-21T21:54:36.915Z,23.92
2022-11-21T21:59:38.089Z,24.52
2022-11-21T22:04:40.187Z,28.95
2022-11-21T22:09:40.947Z,26.05
2022-11-21T22:14:41.762Z,30.55
2022-11-21T22:19:43.890Z,27.48
2022-11-21T22:24:44.828Z,28.92
2022-11-21T22:29:45.814Z,25.05
2022-11-21T22:34:47.909Z,23.63
2022-11-21T22:39:48.723Z,25.50
2022-11-21T22:44:49.497Z,25.88
2022-11-21T22:49:51.651Z,25.65
2022-11-21T22:54:52.459Z,25.48
2022-11-21T22:59:53.268Z,25.20
2022-11-21T23:04:55.398Z,21.27
2022-11-21T23:09:56.234Z,23.75
2022-11-21T23:14:56.968Z,24.33
2022-11-21T23:19:59.143Z,23.88
2022-11-21T23:24:59.926Z,24.02
2022-11-21T23:30:00.709Z,24.83
2022-11-21T23:35:02.803Z,21.95
2022-11-21T23:40:03.641Z,22.08
2022-11-21T23:45:04.969Z,25.77
2022-11-21T23:50:08.144Z,23.90
2022-11-21T23:55:10.279Z,24.10
